sensor_id;sensor_type;location;lat;lon;timestamp;pressure;altitude;pressure_sealevel;temperature;humidity
75513;BME280;64090;49.770;18.760;2023-03-31T00:24:13;96963.33;;;8.25;79.44
75513;BME280;64090;49.770;18.760;2023-03-31T00:32:46;96958.20;;;8.27;79.22
75513;BME280;64090;49.770;18.760;2023-03-31T03:24:28;96894.51;;;6.81;84.63
75513;BME280;64090;49.770;18.760;2023-03-31T04:24:53;96871.29;;;6.66;82.16
75513;BME280;64090;49.770;18.760;2023-03-31T04:59:01;96835.77;;;6.67;83.32
75513;BME280;64090;49.770;18.760;2023-03-31T05:27:07;96810.48;;;9.18;78.09
75513;BME280;64090;49.770;18.760;2023-03-31T05:30:48;96811.59;;;9.33;78.04
75513;BME280;64090;49.770;18.760;2023-03-31T05:43:06;96804.10;;;9.73;75.45
75513;BME280;64090;49.770;18.760;2023-03-31T05:47:23;96800.60;;;9.90;74.92
75513;BME280;64090;49.770;18.760;2023-03-31T05:51:03;96801.34;;;10.06;74.64
75513;BME280;64090;49.770;18.760;2023-03-31T05:55:01;96801.16;;;10.29;73.99
75513;BME280;64090;49.770;18.760;2023-03-31T05:58:40;96798.48;;;10.49;73.43
75513;BME280;64090;49.770;18.760;2023-03-31T06:02:07;96799.13;;;10.64;72.89
75513;BME280;64090;49.770;18.760;2023-03-31T06:05:45;96804.21;;;10.81;72.68
75513;BME280;64090;49.770;18.760;2023-03-31T06:09:31;96801.27;;;11.03;71.74
75513;BME280;64090;49.770;18.760;2023-03-31T06:13:19;96797.02;;;11.21;70.82
75513;BME280;64090;49.770;18.760;2023-03-31T06:17:14;96793.11;;;11.27;69.67
75513;BME280;64090;49.770;18.760;2023-03-31T06:21:02;96802.64;;;11.43;69.64
75513;BME280;64090;49.770;18.760;2023-03-31T06:24:38;96800.10;;;11.60;69.47
75513;BME280;64090;49.770;18.760;2023-03-31T06:28:09;96801.02;;;11.71;69.32
75513;BME280;64090;49.770;18.760;2023-03-31T06:31:21;96794.70;;;11.83;68.80
75513;BME280;64090;49.770;18.760;2023-03-31T06:34:38;96784.62;;;11.94;68.30
75513;BME280;64090;49.770;18.760;2023-03-31T06:38:19;96780.70;;;12.01;67.06
75513;BME280;64090;49.770;18.760;2023-03-31T06:41:34;96785.02;;;12.13;67.09
75513;BME280;64090;49.770;18.760;2023-03-31T06:44:55;96787.29;;;12.27;67.01
75513;BME280;64090;49.770;18.760;2023-03-31T06:48:25;96778.30;;;12.04;66.58
75513;BME280;64090;49.770;18.760;2023-03-31T06:51:45;96774.62;;;11.80;67.22
75513;BME280;64090;49.770;18.760;2023-03-31T06:54:55;96779.53;;;11.98;67.35
75513;BME280;64090;49.770;18.760;2023-03-31T06:58:36;96784.30;;;12.29;67.38
75513;BME280;64090;49.770;18.760;2023-03-31T07:02:09;96775.91;;;12.57;66.10
75513;BME280;64090;49.770;18.760;2023-03-31T07:05:52;96781.91;;;12.84;64.96
75513;BME280;64090;49.770;18.760;2023-03-31T07:09:20;96778.63;;;13.15;64.30
75513;BME280;64090;49.770;18.760;2023-03-31T07:12:43;96779.77;;;13.22;64.16
75513;BME280;64090;49.770;18.760;2023-03-31T07:16:09;96775.58;;;13.26;63.47
75513;BME280;64090;49.770;18.760;2023-03-31T07:19:44;96776.55;;;13.37;63.07
75513;BME280;64090;49.770;18.760;2023-03-31T07:23:08;96777.74;;;13.59;63.12
75513;BME280;64090;49.770;18.760;2023-03-31T07:26:32;96772.94;;;14.02;62.75
75513;BME280;64090;49.770;18.760;2023-03-31T07:29:47;96770.55;;;14.52;62.52
75513;BME280;64090;49.770;18.760;2023-03-31T07:33:15;96760.48;;;14.65;59.92
75513;BME280;64090;49.770;18.760;2023-03-31T07:36:42;96763.22;;;14.67;59.64
75513;BME280;64090;49.770;18.760;2023-03-31T07:40:43;96758.69;;;14.91;59.94
75513;BME280;64090;49.770;18.760;2023-03-31T07:44:15;96754.45;;;15.16;59.80
75513;BME280;64090;49.770;18.760;2023-03-31T07:47:47;96756.48;;;15.45;59.73
75513;BME280;64090;49.770;18.760;2023-03-31T07:51:13;96747.66;;;15.36;59.00
75513;BME280;64090;49.770;18.760;2023-03-31T07:54:26;96744.13;;;15.35;59.36
75513;BME280;64090;49.770;18.760;2023-03-31T07:57:47;96747.48;;;15.61;58.85
75513;BME280;64090;49.770;18.760;2023-03-31T08:01:13;96741.19;;;15.87;57.92
75513;BME280;64090;49.770;18.760;2023-03-31T08:04:40;96729.51;;;16.15;57.67
75513;BME280;64090;49.770;18.760;2023-03-31T08:08:29;96712.58;;;16.53;56.68
75513;BME280;64090;49.770;18.760;2023-03-31T08:12:25;96704.04;;;16.63;55.15
75513;BME280;64090;49.770;18.760;2023-03-31T08:15:48;96692.13;;;16.80;56.10
75513;BME280;64090;49.770;18.760;2023-03-31T08:19:19;96681.73;;;17.03;56.42
75513;BME280;64090;49.770;18.760;2023-03-31T08:22:39;96677.92;;;17.02;54.96
75513;BME280;64090;49.770;18.760;2023-03-31T08:26:10;96670.17;;;16.74;54.40
75513;BME280;64090;49.770;18.760;2023-03-31T08:29:50;96667.20;;;16.45;55.08
75513;BME280;64090;49.770;18.760;2023-03-31T08:33:30;96663.42;;;16.06;56.08
75513;BME280;64090;49.770;18.760;2023-03-31T08:36:56;96659.38;;;15.76;56.73
75513;BME280;64090;49.770;18.760;2023-03-31T08:40:23;96657.21;;;15.73;57.43
75513;BME280;64090;49.770;18.760;2023-03-31T08:43:47;96657.21;;;15.75;57.66
75513;BME280;64090;49.770;18.760;2023-03-31T08:47:26;96649.84;;;15.80;58.03
75513;BME280;64090;49.770;18.760;2023-03-31T08:50:44;96647.98;;;15.91;57.05
75513;BME280;64090;49.770;18.760;2023-03-31T08:57:39;96636.98;;;16.05;56.05
75513;BME280;64090;49.770;18.760;2023-03-31T09:01:41;96632.86;;;16.03;55.11
75513;BME280;64090;49.770;18.760;2023-03-31T09:05:42;96624.00;;;15.98;55.82
75513;BME280;64090;49.770;18.760;2023-03-31T09:15:58;96606.14;;;16.97;54.47
75513;BME280;64090;49.770;18.760;2023-03-31T09:19:56;96595.12;;;17.24;53.48
75513;BME280;64090;49.770;18.760;2023-03-31T09:23:58;96591.77;;;17.16;53.90
75513;BME280;64090;49.770;18.760;2023-03-31T09:27:33;96579.33;;;17.11;53.75
75513;BME280;64090;49.770;18.760;2023-03-31T09:30:50;96575.61;;;17.13;53.23
75513;BME280;64090;49.770;18.760;2023-03-31T09:34:00;96572.73;;;17.19;52.76
75513;BME280;64090;49.770;18.760;2023-03-31T09:37:31;96572.77;;;17.36;53.64
75513;BME280;64090;49.770;18.760;2023-03-31T09:41:06;96578.45;;;17.56;53.36
75513;BME280;64090;49.770;18.760;2023-03-31T09:44:45;96581.17;;;17.65;53.56
75513;BME280;64090;49.770;18.760;2023-03-31T09:48:19;96571.84;;;17.89;53.03
75513;BME280;64090;49.770;18.760;2023-03-31T09:51:40;96565.27;;;17.97;52.73
75513;BME280;64090;49.770;18.760;2023-03-31T09:55:00;96560.29;;;17.68;52.16
75513;BME280;64090;49.770;18.760;2023-03-31T09:58:23;96557.60;;;17.45;51.67
75513;BME280;64090;49.770;18.760;2023-03-31T10:01:50;96556.52;;;17.38;52.20
75513;BME280;64090;49.770;18.760;2023-03-31T10:05:50;96546.28;;;17.24;50.75
75513;BME280;64090;49.770;18.760;2023-03-31T10:09:29;96545.00;;;17.01;52.57
75513;BME280;64090;49.770;18.760;2023-03-31T10:13:07;96543.10;;;16.97;52.25
75513;BME280;64090;49.770;18.760;2023-03-31T10:16:32;96539.31;;;16.91;52.59
75513;BME280;64090;49.770;18.760;2023-03-31T10:19:58;96534.08;;;16.86;53.22
75513;BME280;64090;49.770;18.760;2023-03-31T10:23:31;96539.89;;;17.04;53.01
75513;BME280;64090;49.770;18.760;2023-03-31T10:27:16;96536.41;;;17.01;53.42
75513;BME280;64090;49.770;18.760;2023-03-31T10:30:40;96536.66;;;17.05;53.58
75513;BME280;64090;49.770;18.760;2023-03-31T10:33:54;96535.11;;;16.76;54.09
75513;BME280;64090;49.770;18.760;2023-03-31T10:37:37;96532.17;;;16.50;55.41
75513;BME280;64090;49.770;18.760;2023-03-31T10:40:55;96524.86;;;16.59;55.63
75513;BME280;64090;49.770;18.760;2023-03-31T10:44:32;96517.88;;;16.77;55.50
75513;BME280;64090;49.770;18.760;2023-03-31T10:47:59;96513.55;;;17.00;55.14
75513;BME280;64090;49.770;18.760;2023-03-31T10:51:50;96503.92;;;17.38;54.45
75513;BME280;64090;49.770;18.760;2023-03-31T10:55:38;96503.42;;;17.76;52.42
75513;BME280;64090;49.770;18.760;2023-03-31T10:59:47;96497.44;;;17.69;51.74
75513;BME280;64090;49.770;18.760;2023-03-31T11:04:21;96488.52;;;17.41;52.41
75513;BME280;64090;49.770;18.760;2023-03-31T11:08:04;96489.14;;;17.43;51.99
75513;BME280;64090;49.770;18.760;2023-03-31T11:19:15;96469.24;;;17.07;50.78
75513;BME280;64090;49.770;18.760;2023-03-31T11:23:02;96462.69;;;16.77;52.18
75513;BME280;64090;49.770;18.760;2023-03-31T11:44:11;96427.45;;;16.83;51.77
75513;BME280;64090;49.770;18.760;2023-03-31T11:48:00;96422.38;;;16.88;51.28
75513;BME280;64090;49.770;18.760;2023-03-31T11:51:15;96411.51;;;17.01;50.74
75513;BME280;64090;49.770;18.760;2023-03-31T11:58:50;96405.21;;;17.32;47.65
75513;BME280;64090;49.770;18.760;2023-03-31T12:02:21;96409.63;;;17.54;49.12
75513;BME280;64090;49.770;18.760;2023-03-31T12:05:54;96402.55;;;17.70;47.73
75513;BME280;64090;49.770;18.760;2023-03-31T12:13:51;96400.35;;;17.98;47.59
75513;BME280;64090;49.770;18.760;2023-03-31T12:17:31;96396.82;;;17.81;48.23
75513;BME280;64090;49.770;18.760;2023-03-31T12:20:45;96388.13;;;17.30;48.19
75513;BME280;64090;49.770;18.760;2023-03-31T12:24:11;96384.82;;;17.15;49.06
75513;BME280;64090;49.770;18.760;2023-03-31T12:28:00;96374.39;;;16.77;48.93
75513;BME280;64090;49.770;18.760;2023-03-31T12:31:22;96368.41;;;16.53;49.27
75513;BME280;64090;49.770;18.760;2023-03-31T12:34:47;96360.09;;;16.42;49.09
75513;BME280;64090;49.770;18.760;2023-03-31T12:42:34;96357.16;;;16.26;48.17
75513;BME280;64090;49.770;18.760;2023-03-31T12:46:28;96352.00;;;15.90;46.97
75513;BME280;64090;49.770;18.760;2023-03-31T12:54:07;96354.27;;;15.28;49.01
75513;BME280;64090;49.770;18.760;2023-03-31T12:57:40;96353.73;;;14.92;51.48
75513;BME280;64090;49.770;18.760;2023-03-31T13:04:47;96340.54;;;14.50;53.57
75513;BME280;64090;49.770;18.760;2023-03-31T13:08:07;96334.98;;;14.43;53.25
75513;BME280;64090;49.770;18.760;2023-03-31T13:14:51;96327.98;;;14.44;54.14
75513;BME280;64090;49.770;18.760;2023-03-31T13:18:19;96324.48;;;14.37;54.55
75513;BME280;64090;49.770;18.760;2023-03-31T13:21:54;96325.92;;;14.16;56.70
75513;BME280;64090;49.770;18.760;2023-03-31T13:29:40;96300.99;;;13.76;59.59
75513;BME280;64090;49.770;18.760;2023-03-31T13:33:01;96287.55;;;13.96;59.28
75513;BME280;64090;49.770;18.760;2023-03-31T13:36:48;96274.48;;;14.28;58.77
75513;BME280;64090;49.770;18.760;2023-03-31T13:48:56;96242.34;;;14.60;57.58
75513;BME280;64090;49.770;18.760;2023-03-31T13:52:25;96236.50;;;14.72;57.67
75513;BME280;64090;49.770;18.760;2023-03-31T13:56:00;96233.55;;;14.75;57.20
75513;BME280;64090;49.770;18.760;2023-03-31T14:07:37;96210.22;;;14.52;56.19
75513;BME280;64090;49.770;18.760;2023-03-31T14:11:43;96203.48;;;14.53;56.71
75513;BME280;64090;49.770;18.760;2023-03-31T14:15:16;96196.00;;;14.52;57.09
75513;BME280;64090;49.770;18.760;2023-03-31T14:18:44;96189.04;;;14.41;57.28
75513;BME280;64090;49.770;18.760;2023-03-31T14:22:14;96178.50;;;14.25;56.94
75513;BME280;64090;49.770;18.760;2023-03-31T14:26:06;96171.02;;;14.11;57.51
75513;BME280;64090;49.770;18.760;2023-03-31T14:29:47;96168.67;;;14.11;57.96
75513;BME280;64090;49.770;18.760;2023-03-31T14:33:28;96163.43;;;14.27;58.01
75513;BME280;64090;49.770;18.760;2023-03-31T14:37:21;96156.75;;;14.29;57.84
75513;BME280;64090;49.770;18.760;2023-03-31T14:40:55;96150.83;;;14.30;57.74
75513;BME280;64090;49.770;18.760;2023-03-31T14:44:18;96147.23;;;14.29;57.63
75513;BME280;64090;49.770;18.760;2023-03-31T14:47:27;96144.78;;;14.19;57.84
75513;BME280;64090;49.770;18.760;2023-03-31T14:50:35;96140.18;;;14.08;58.26
75513;BME280;64090;49.770;18.760;2023-03-31T14:53:55;96138.83;;;14.02;58.09
75513;BME280;64090;49.770;18.760;2023-03-31T14:57:16;96132.84;;;13.96;57.94
75513;BME280;64090;49.770;18.760;2023-03-31T15:00:57;96128.09;;;13.93;58.12
75513;BME280;64090;49.770;18.760;2023-03-31T15:04:27;96121.48;;;13.99;58.13
75513;BME280;64090;49.770;18.760;2023-03-31T15:08:10;96116.29;;;14.19;57.71
75513;BME280;64090;49.770;18.760;2023-03-31T15:12:01;96115.36;;;14.37;57.43
75513;BME280;64090;49.770;18.760;2023-03-31T15:15:26;96115.66;;;14.44;57.72
75513;BME280;64090;49.770;18.760;2023-03-31T15:18:42;96105.58;;;14.41;57.89
75513;BME280;64090;49.770;18.760;2023-03-31T15:22:31;96102.48;;;14.23;57.48
75513;BME280;64090;49.770;18.760;2023-03-31T15:25:48;96096.19;;;14.11;57.95
75513;BME280;64090;49.770;18.760;2023-03-31T15:29:09;96087.31;;;14.20;57.83
75513;BME280;64090;49.770;18.760;2023-03-31T15:32:39;96069.65;;;14.38;57.26
75513;BME280;64090;49.770;18.760;2023-03-31T15:35:59;96053.35;;;14.63;57.18
75513;BME280;64090;49.770;18.760;2023-03-31T15:39:15;96052.90;;;14.84;56.37
75513;BME280;64090;49.770;18.760;2023-03-31T15:42:45;96045.94;;;14.81;56.06
75513;BME280;64090;49.770;18.760;2023-03-31T15:46:58;96035.77;;;14.48;56.44
75513;BME280;64090;49.770;18.760;2023-03-31T15:51:46;96022.98;;;13.98;56.98
75513;BME280;64090;49.770;18.760;2023-03-31T15:55:30;96024.02;;;13.60;57.14
75513;BME280;64090;49.770;18.760;2023-03-31T15:59:10;96023.89;;;13.36;57.80
75513;BME280;64090;49.770;18.760;2023-03-31T16:07:09;96017.05;;;13.11;58.70
75513;BME280;64090;49.770;18.760;2023-03-31T16:10:35;96009.76;;;13.17;58.84
75513;BME280;64090;49.770;18.760;2023-03-31T16:14:26;96002.23;;;13.19;58.79
75513;BME280;64090;49.770;18.760;2023-03-31T16:18:35;96010.96;;;13.09;59.61
75513;BME280;64090;49.770;18.760;2023-03-31T16:21:49;96012.33;;;13.00;59.57
75513;BME280;64090;49.770;18.760;2023-03-31T16:25:32;96015.82;;;12.88;59.93
75513;BME280;64090;49.770;18.760;2023-03-31T16:29:21;96010.86;;;12.73;60.56
75513;BME280;64090;49.770;18.760;2023-03-31T16:33:22;96010.39;;;12.63;61.03
75513;BME280;64090;49.770;18.760;2023-03-31T16:37:34;96004.45;;;12.53;61.75
75513;BME280;64090;49.770;18.760;2023-03-31T16:41:23;95996.79;;;12.42;61.84
75513;BME280;64090;49.770;18.760;2023-03-31T16:44:55;95990.52;;;12.38;62.42
75513;BME280;64090;49.770;18.760;2023-03-31T16:48:27;95982.89;;;12.34;62.49
75513;BME280;64090;49.770;18.760;2023-03-31T16:52:08;95984.30;;;12.30;62.68
75513;BME280;64090;49.770;18.760;2023-03-31T16:56:02;95981.35;;;12.26;62.82
75513;BME280;64090;49.770;18.760;2023-03-31T16:59:29;95975.31;;;12.22;63.25
75513;BME280;64090;49.770;18.760;2023-03-31T17:03:41;95976.00;;;12.19;63.70
75513;BME280;64090;49.770;18.760;2023-03-31T17:07:37;95969.25;;;12.12;63.38
75513;BME280;64090;49.770;18.760;2023-03-31T17:11:39;95968.08;;;12.04;64.10
75513;BME280;64090;49.770;18.760;2023-03-31T17:15:24;95971.88;;;11.98;64.43
75513;BME280;64090;49.770;18.760;2023-03-31T17:19:05;95961.52;;;11.90;64.80
75513;BME280;64090;49.770;18.760;2023-03-31T17:22:28;95952.00;;;11.87;65.15
75513;BME280;64090;49.770;18.760;2023-03-31T17:26:05;95949.77;;;11.83;64.98
75513;BME280;64090;49.770;18.760;2023-03-31T17:30:07;95953.70;;;11.79;65.10
75513;BME280;64090;49.770;18.760;2023-03-31T17:33:51;95951.52;;;11.74;65.23
75513;BME280;64090;49.770;18.760;2023-03-31T17:37:48;95943.83;;;11.69;65.85
75513;BME280;64090;49.770;18.760;2023-03-31T17:41:26;95947.23;;;11.67;65.86
75513;BME280;64090;49.770;18.760;2023-03-31T17:44:55;95947.23;;;11.60;66.08
75513;BME280;64090;49.770;18.760;2023-03-31T17:52:33;95940.17;;;11.54;67.27
75513;BME280;64090;49.770;18.760;2023-03-31T17:56:21;95943.23;;;11.50;67.46
75513;BME280;64090;49.770;18.760;2023-03-31T18:00:24;95941.32;;;11.43;68.02
75513;BME280;64090;49.770;18.760;2023-03-31T18:04:14;95939.59;;;11.39;68.44
75513;BME280;64090;49.770;18.760;2023-03-31T18:16:35;95939.52;;;11.38;68.67
75513;BME280;64090;49.770;18.760;2023-03-31T18:25:36;95939.17;;;11.41;68.64
75513;BME280;64090;49.770;18.760;2023-03-31T18:29:58;95938.61;;;11.40;69.08
75513;BME280;64090;49.770;18.760;2023-03-31T18:46:41;95928.10;;;11.13;69.68
75513;BME280;64090;49.770;18.760;2023-03-31T18:50:43;95925.95;;;11.10;69.85
75513;BME280;64090;49.770;18.760;2023-03-31T19:18:02;95971.27;;;11.47;69.08
75513;BME280;64090;49.770;18.760;2023-03-31T19:25:54;96007.30;;;11.18;71.38
75513;BME280;64090;49.770;18.760;2023-03-31T19:35:08;96041.64;;;9.83;79.43
75513;BME280;64090;49.770;18.760;2023-03-31T19:56:20;95979.00;;;8.62;82.43
75513;BME280;64090;49.770;18.760;2023-03-31T20:12:24;95980.73;;;8.36;79.48
75513;BME280;64090;49.770;18.760;2023-03-31T20:16:37;95982.75;;;8.31;79.67
75513;BME280;64090;49.770;18.760;2023-03-31T20:51:18;96010.15;;;8.20;77.80
75513;BME280;64090;49.770;18.760;2023-03-31T21:03:37;96018.40;;;8.37;75.83
75513;BME280;64090;49.770;18.760;2023-03-31T21:20:45;96004.98;;;8.23;75.94
75513;BME280;64090;49.770;18.760;2023-03-31T21:33:03;96028.35;;;8.21;75.89
75513;BME280;64090;49.770;18.760;2023-03-31T21:49:24;96035.17;;;7.94;76.30
75513;BME280;64090;49.770;18.760;2023-03-31T22:31:46;96023.93;;;7.91;77.43
75513;BME280;64090;49.770;18.760;2023-03-31T22:40:12;96035.02;;;7.97;77.00
75513;BME280;64090;49.770;18.760;2023-03-31T23:04:35;96047.14;;;7.73;77.62
75513;BME280;64090;49.770;18.760;2023-03-31T23:08:28;96048.54;;;7.77;78.51
